University Park Airport
KUNV : now visible

Airfield :











YOU CAN JOIN US ON...

 
LOGIN :

Register | Disclaimer

   EN    FR    IT 

 









Legend :    VFR   Marginal VFR   IFR   Intensive IFR   Very Intensive IFR
Visi :
Ceiling :
>= 8 km
>= 3000ft
5 to 8 km
1000 to 3000 ft
1500m to 5 km
500 to 1000 ft
800 to 1500m
200 to 500 ft
< 800m
< 200 ft
Symbols :   Thunderstorms  Fog  Heavy snow  Heavy precipitations  Wind > 20 kt






- Airport Elevation : 1239 ft


KUNV - University Park

CURRENT METAR :
  • 250556Z AUTO 00000KT 10SM OVC060 07/M04 A2984 RMK AO2 T00721040 10103 20065

EXPIRED METARs :
  • 250536Z AUTO 30004KT 10SM OVC065 07/M04 A2984 RMK AO2 T00741039
  • 250515Z AUTO 02003KT 10SM OVC065 07/M04 A2983 RMK AO2 T00741041
  • 250455Z AUTO 00000KT 10SM SCT075 OVC085 09/M05 A2983 RMK AO2 T00861053
  • 250435Z AUTO 00000KT 10SM OVC100 08/M05 A2983 RMK AO2 T00811051
  • 250416Z AUTO 07004KT 10SM OVC100 09/M05 A2984 RMK AO2 T00871050
  • 250355Z AUTO 00000KT 10SM OVC110 09/M05 A2986 RMK AO2 T00861048 401321005
  • 250335Z AUTO 36003KT 10SM OVC110 08/M05 A2986 RMK AO2 T00831047
  • 250316Z AUTO 00000KT 10SM OVC120 09/M05 A2988 RMK AO2 T00921055

TAF KUNV
Valid from the 25 at 06:00 until the 26 at 06:00 UTC


250539Z 2506/2606 VRB03KT P6SM VCSH OVC050
FM250700 VRB03KT 6SM BR VCSH OVC050
FM251100 13005KT 5SM -RA BR OVC025
FM251500 12003KT 2SM -RA BR OVC019
FM252000 14003KT 3SM -DZ BR OVC012
FM252300 VRB03KT 1SM -DZ BR OVC009
FM260200 00000KT 1/2SM FG VCSH OVC007



MET'MAP, your aeronautical weather chart ! - Copyright ORBIFLY December 2007 - Disclaimer

ORBIFLY MET'MAP TEAM :

Programming & Development : Alexandra Zaïnal
Concept & original design : Baudouin d'Aumeries
Assistance for programming : Marc-Olivier Méhu
Technical & hardware support : Manuel Goepfert

Contact : metmap@orbifly.com




SOURCES & CREDITS :

   NOAA       Earth
Advisory